createdAt,value
2018-04-16T00:00:28.663Z,16.60
2018-04-16T00:02:55.623Z,16.50
2018-04-16T00:05:21.990Z,16.50
2018-04-16T00:07:48.255Z,16.50
2018-04-16T00:10:14.559Z,16.40
2018-04-16T00:12:40.898Z,16.40
2018-04-16T00:15:07.148Z,16.30
2018-04-16T00:17:33.605Z,16.30
2018-04-16T00:19:59.827Z,16.30
2018-04-16T00:22:26.061Z,16.20
2018-04-16T00:24:52.565Z,16.20
2018-04-16T00:27:18.797Z,16.10
2018-04-16T00:29:46.039Z,16.10
2018-04-16T00:32:18.551Z,16.00
2018-04-16T00:34:50.814Z,16.00
2018-04-16T00:37:23.075Z,16.00
2018-04-16T00:42:53.640Z,15.90
2018-04-16T00:45:26.182Z,15.90
2018-04-16T00:47:58.507Z,15.90
2018-04-16T00:50:30.918Z,15.80
2018-04-16T00:53:03.461Z,15.80
2018-04-16T00:55:35.891Z,15.80
2018-04-16T00:58:08.247Z,15.80
2018-04-16T01:00:40.706Z,15.70
2018-04-16T01:03:13.792Z,15.80
2018-04-16T01:05:46.378Z,15.70
2018-04-16T01:08:18.728Z,15.80
2018-04-16T01:13:50.159Z,15.80
2018-04-16T01:16:23.359Z,15.80
2018-04-16T01:18:56.479Z,15.90
2018-04-16T01:21:28.830Z,15.80
2018-04-16T01:24:01.236Z,15.80
2018-04-16T01:26:33.653Z,15.90
2018-04-16T01:29:06.168Z,15.90
2018-04-16T01:31:38.577Z,15.90
2018-04-16T01:34:10.848Z,16.00
2018-04-16T01:36:43.495Z,16.00
2018-04-16T01:39:16.921Z,16.00
2018-04-16T01:41:50.100Z,16.10
2018-04-16T01:44:23.160Z,16.10
2018-04-16T01:46:55.542Z,16.10
2018-04-16T01:49:27.937Z,16.10
2018-04-16T01:52:00.238Z,16.10
2018-04-16T01:54:33.330Z,16.10
2018-04-16T01:57:05.578Z,16.10
2018-04-16T01:59:37.994Z,16.20
2018-04-16T02:02:10.413Z,16.20
2018-04-16T02:04:43.499Z,16.20
2018-04-16T02:07:16.040Z,16.20
2018-04-16T02:09:48.517Z,16.20
2018-04-16T02:12:20.840Z,16.20
2018-04-16T02:14:53.152Z,16.20
2018-04-16T02:17:26.312Z,16.20
2018-04-16T02:19:58.699Z,16.20
2018-04-16T02:22:31.024Z,16.20
2018-04-16T02:25:03.365Z,16.20
2018-04-16T02:27:35.654Z,16.10
2018-04-16T02:30:07.911Z,16.20
2018-04-16T02:32:40.265Z,16.20
2018-04-16T02:35:12.511Z,16.20
2018-04-16T02:37:44.852Z,16.20
2018-04-16T02:40:17.154Z,16.20
2018-04-16T02:42:49.518Z,16.20
2018-04-16T02:45:22.507Z,16.20
2018-04-16T02:47:55.678Z,16.10
2018-04-16T02:50:28.798Z,16.10
2018-04-16T02:53:01.221Z,16.10
2018-04-16T02:55:33.562Z,16.10
2018-04-16T02:58:06.185Z,16.10
2018-04-16T03:00:39.349Z,16.10
2018-04-16T03:03:11.740Z,16.10
2018-04-16T03:05:44.019Z,16.10
2018-04-16T03:08:16.367Z,16.00
2018-04-16T03:10:55.583Z,16.00
2018-04-16T03:13:28.670Z,16.00
2018-04-16T03:16:01.927Z,16.00
2018-04-16T03:18:34.212Z,15.90
2018-04-16T03:21:06.706Z,15.90
2018-04-16T03:23:38.894Z,15.90
2018-04-16T03:26:11.235Z,15.90
2018-04-16T03:28:43.581Z,15.90
2018-04-16T03:31:16.213Z,15.80
2018-04-16T03:33:48.581Z,15.80
2018-04-16T03:36:21.935Z,15.80
2018-04-16T03:38:54.266Z,15.70
2018-04-16T03:41:27.393Z,15.70
2018-04-16T03:43:59.770Z,15.70
2018-04-16T03:46:32.154Z,15.70
2018-04-16T03:49:04.538Z,15.60
2018-04-16T03:51:36.869Z,15.60
2018-04-16T03:54:03.172Z,15.60
2018-04-16T03:56:30.146Z,15.50
2018-04-16T03:58:57.110Z,15.50
2018-04-16T04:01:23.297Z,15.50
2018-04-16T04:03:49.486Z,15.40
2018-04-16T04:06:16.548Z,15.40
2018-04-16T04:08:42.795Z,15.40
2018-04-16T04:11:08.995Z,15.50
2018-04-16T04:13:35.254Z,15.40
2018-04-16T04:16:01.509Z,15.40
2018-04-16T04:18:27.786Z,15.40
2018-04-16T04:20:54.008Z,15.40
2018-04-16T04:23:32.518Z,15.40
2018-04-16T04:26:11.200Z,15.40
2018-04-16T04:28:49.688Z,15.40
2018-04-16T04:31:15.860Z,15.40
2018-04-16T04:33:42.109Z,15.30
2018-04-16T04:36:08.306Z,15.40
2018-04-16T04:38:34.506Z,15.40
2018-04-16T04:41:00.715Z,15.40
2018-04-16T04:43:26.911Z,15.30
2018-04-16T04:45:53.880Z,15.30
2018-04-16T04:48:21.790Z,15.30
2018-04-16T04:50:47.976Z,15.20
2018-04-16T04:53:14.277Z,15.20
2018-04-16T04:55:40.507Z,15.20
2018-04-16T04:58:06.699Z,15.20
2018-04-16T05:00:33.676Z,15.10
2018-04-16T05:03:00.602Z,15.10
2018-04-16T05:05:26.811Z,15.00
2018-04-16T05:07:53.320Z,15.00
2018-04-16T05:10:19.537Z,15.00
2018-04-16T05:12:45.731Z,15.00
2018-04-16T05:15:11.961Z,15.00
2018-04-16T05:17:38.147Z,14.90
2018-04-16T05:20:04.343Z,14.90
2018-04-16T05:22:30.543Z,14.90
2018-04-16T05:24:57.537Z,14.80
2018-04-16T05:27:23.734Z,14.80
2018-04-16T05:29:51.435Z,14.70
2018-04-16T05:32:17.659Z,14.70
2018-04-16T05:34:44.637Z,14.70
2018-04-16T05:37:10.860Z,14.70
2018-04-16T05:39:37.097Z,14.70
2018-04-16T05:42:03.437Z,14.70
2018-04-16T05:44:29.718Z,14.70
2018-04-16T05:46:55.951Z,14.70
2018-04-16T05:49:22.233Z,14.70
2018-04-16T05:51:48.398Z,14.70
2018-04-16T05:54:15.352Z,14.80
2018-04-16T05:56:41.579Z,14.80
2018-04-16T05:59:07.823Z,15.00
2018-04-16T06:01:34.830Z,15.30
2018-04-16T06:04:01.051Z,15.30
2018-04-16T06:06:27.338Z,15.50
2018-04-16T06:08:53.606Z,15.70
2018-04-16T06:11:19.795Z,15.90
2018-04-16T06:13:46.013Z,16.10
2018-04-16T06:16:13.039Z,16.40
2018-04-16T06:18:39.263Z,16.40
2018-04-16T06:21:06.374Z,16.60
2018-04-16T06:23:32.605Z,16.60
2018-04-16T06:25:59.533Z,16.90
2018-04-16T06:28:25.782Z,16.90
2018-04-16T06:30:52.011Z,17.00
2018-04-16T06:33:18.220Z,17.10
2018-04-16T06:35:45.317Z,17.30
2018-04-16T06:38:11.639Z,17.30
2018-04-16T06:40:37.888Z,17.40
2018-04-16T06:43:04.327Z,17.50
2018-04-16T06:45:30.627Z,17.60
2018-04-16T06:47:56.866Z,17.70
2018-04-16T06:50:23.095Z,17.70
2018-04-16T06:52:49.316Z,17.70
2018-04-16T06:55:15.504Z,17.70
2018-04-16T06:57:41.747Z,17.80
2018-04-16T07:00:07.952Z,17.90
2018-04-16T07:02:34.251Z,17.80
2018-04-16T07:05:00.500Z,17.80
2018-04-16T07:07:26.831Z,17.80
2018-04-16T07:09:53.628Z,17.80
2018-04-16T07:12:19.960Z,17.70
2018-04-16T07:14:46.163Z,17.70
2018-04-16T07:17:13.187Z,17.60
2018-04-16T07:19:39.435Z,17.50
2018-04-16T07:22:05.624Z,17.50
2018-04-16T07:24:31.891Z,17.50
2018-04-16T07:26:58.083Z,17.40
2018-04-16T07:29:24.358Z,17.40
2018-04-16T07:31:50.573Z,17.40
2018-04-16T07:34:17.796Z,17.40
2018-04-16T07:36:44.808Z,17.50
2018-04-16T07:39:11.047Z,17.50
2018-04-16T07:41:38.046Z,17.60
2018-04-16T07:44:04.224Z,17.60
2018-04-16T07:46:30.412Z,17.60
2018-04-16T07:48:56.693Z,17.60
2018-04-16T07:51:22.887Z,17.60
2018-04-16T07:53:49.094Z,17.70
2018-04-16T07:56:16.102Z,17.80
2018-04-16T07:58:42.380Z,17.80
2018-04-16T08:01:08.590Z,17.90
2018-04-16T08:03:34.790Z,18.00
2018-04-16T08:06:01.760Z,18.10
2018-04-16T08:08:27.967Z,18.10
2018-04-16T08:10:54.927Z,18.20
2018-04-16T08:13:21.900Z,18.30
2018-04-16T08:15:48.111Z,18.20
2018-04-16T08:18:14.310Z,18.30
2018-04-16T08:20:40.632Z,18.30
2018-04-16T08:23:06.887Z,18.30
2018-04-16T08:25:33.127Z,18.30
2018-04-16T08:27:59.314Z,18.40
2018-04-16T08:30:25.498Z,18.50
2018-04-16T08:32:51.742Z,18.50
2018-04-16T08:35:17.936Z,18.50
2018-04-16T08:37:44.144Z,18.50
2018-04-16T08:40:10.450Z,18.50
2018-04-16T08:42:36.791Z,18.50
2018-04-16T08:45:03.008Z,18.60
2018-04-16T08:47:29.269Z,18.60
2018-04-16T08:49:55.599Z,18.60
2018-04-16T08:52:21.837Z,18.70
2018-04-16T08:54:48.112Z,18.80
2018-04-16T08:57:14.350Z,18.80
2018-04-16T08:59:40.617Z,18.90
2018-04-16T09:02:06.866Z,19.10
2018-04-16T09:04:33.119Z,19.20
2018-04-16T09:07:00.074Z,19.50
2018-04-16T09:09:27.048Z,19.60
2018-04-16T09:11:53.286Z,19.60
2018-04-16T09:14:20.227Z,19.80
2018-04-16T09:16:46.445Z,19.80
2018-04-16T09:19:12.687Z,19.90
2018-04-16T09:21:40.448Z,20.20
2018-04-16T09:24:06.717Z,20.10
2018-04-16T09:26:33.687Z,20.40
2018-04-16T09:29:00.917Z,20.40
2018-04-16T09:31:27.123Z,20.50
2018-04-16T09:33:53.338Z,20.50
2018-04-16T09:36:20.307Z,20.70
2018-04-16T09:38:47.248Z,20.80
2018-04-16T09:41:13.495Z,20.80
2018-04-16T09:43:40.495Z,20.80
2018-04-16T09:46:06.729Z,20.90
2018-04-16T09:48:33.949Z,20.90
2018-04-16T09:51:00.895Z,21.00
2018-04-16T09:53:27.252Z,21.00
2018-04-16T09:55:54.994Z,21.10
2018-04-16T09:58:21.182Z,21.20
2018-04-16T10:00:50.317Z,21.20
2018-04-16T10:03:17.295Z,21.30
2018-04-16T10:05:44.335Z,21.30
2018-04-16T10:08:11.282Z,21.30
2018-04-16T10:10:37.495Z,21.30
2018-04-16T10:13:03.808Z,21.30
2018-04-16T10:15:30.290Z,21.30
2018-04-16T10:17:56.578Z,21.30
2018-04-16T10:20:22.719Z,21.30
2018-04-16T10:22:49.682Z,21.00
2018-04-16T10:25:15.909Z,21.00
2018-04-16T10:27:42.261Z,20.90
2018-04-16T10:30:08.688Z,20.80
2018-04-16T10:32:35.627Z,20.70
2018-04-16T10:35:01.956Z,20.70
2018-04-16T10:37:28.197Z,20.70
2018-04-16T10:39:54.477Z,20.70
2018-04-16T10:42:20.750Z,20.70
2018-04-16T10:44:46.944Z,20.80
2018-04-16T10:47:14.017Z,21.00
2018-04-16T10:49:40.277Z,21.00
2018-04-16T10:52:13.622Z,21.00
2018-04-16T10:54:39.853Z,21.00
2018-04-16T10:57:06.118Z,21.10
2018-04-16T10:59:32.594Z,21.20
2018-04-16T11:01:59.521Z,21.50
2018-04-16T11:04:25.751Z,21.50
2018-04-16T11:06:51.958Z,21.60
2018-04-16T11:09:18.235Z,21.60
2018-04-16T11:11:44.536Z,21.70
2018-04-16T11:14:10.859Z,21.70
2018-04-16T11:16:37.096Z,21.70
2018-04-16T11:19:04.054Z,21.80
2018-04-16T11:21:31.111Z,21.90
2018-04-16T11:23:57.322Z,21.90
2018-04-16T11:26:23.632Z,22.10
2018-04-16T11:28:49.803Z,22.10
2018-04-16T11:31:15.963Z,22.20
2018-04-16T11:33:42.185Z,22.30
2018-04-16T11:36:08.401Z,22.40
2018-04-16T11:38:34.629Z,22.40
2018-04-16T11:41:00.840Z,22.50
2018-04-16T11:43:27.160Z,22.60
2018-04-16T11:45:54.201Z,22.50
2018-04-16T11:48:20.355Z,22.50
2018-04-16T11:50:47.337Z,22.50
2018-04-16T11:53:13.782Z,22.50
2018-04-16T11:55:40.927Z,22.50
2018-04-16T11:58:07.144Z,22.50
2018-04-16T12:00:34.180Z,22.50
2018-04-16T12:03:00.432Z,22.50
2018-04-16T12:05:26.644Z,22.50
2018-04-16T12:07:52.848Z,22.40
2018-04-16T12:10:19.244Z,22.40
2018-04-16T12:12:45.517Z,22.30
2018-04-16T12:15:12.491Z,22.30
2018-04-16T12:17:38.815Z,22.30
2018-04-16T12:20:05.082Z,22.30
2018-04-16T12:22:31.283Z,22.30
2018-04-16T12:24:57.499Z,22.20
2018-04-16T12:27:23.888Z,22.30
2018-04-16T12:29:50.083Z,22.30
2018-04-16T12:32:16.270Z,22.30
2018-04-16T12:34:42.602Z,22.30
2018-04-16T12:37:09.799Z,22.20
2018-04-16T12:39:40.122Z,22.10
2018-04-16T12:42:06.577Z,22.10
2018-04-16T12:44:32.796Z,22.10
2018-04-16T12:46:59.750Z,22.20
2018-04-16T12:49:25.991Z,22.20
2018-04-16T12:51:52.213Z,22.20
2018-04-16T12:54:19.168Z,22.40
2018-04-16T12:56:46.147Z,22.40
2018-04-16T12:59:12.421Z,22.40
2018-04-16T13:01:38.642Z,22.50
2018-04-16T13:04:04.875Z,22.60
2018-04-16T13:06:31.091Z,22.50
2018-04-16T13:08:58.092Z,22.60
2018-04-16T13:11:25.822Z,22.50
2018-04-16T13:13:52.066Z,22.50
2018-04-16T13:16:18.329Z,22.60
2018-04-16T13:18:44.718Z,22.50
2018-04-16T13:21:11.029Z,22.50
2018-04-16T13:23:37.333Z,22.50
2018-04-16T13:26:03.641Z,22.40
2018-04-16T13:28:29.839Z,22.40
2018-04-16T13:30:56.787Z,22.40
2018-04-16T13:33:22.985Z,22.40
2018-04-16T13:35:49.259Z,22.50
2018-04-16T13:38:15.602Z,22.60
2018-04-16T13:40:42.657Z,22.60
2018-04-16T13:43:10.348Z,22.70
2018-04-16T13:45:37.280Z,22.70
2018-04-16T13:48:03.556Z,22.70
2018-04-16T13:50:30.508Z,22.80
2018-04-16T13:52:57.439Z,22.90
2018-04-16T13:55:23.671Z,22.80
2018-04-16T13:57:49.904Z,22.90
2018-04-16T14:00:16.146Z,22.90
2018-04-16T14:02:42.395Z,22.90
2018-04-16T14:05:09.367Z,22.90
2018-04-16T14:07:36.330Z,22.90
2018-04-16T14:10:02.575Z,22.90
2018-04-16T14:12:29.525Z,22.90
2018-04-16T14:14:55.740Z,22.90
2018-04-16T14:17:21.979Z,23.00
2018-04-16T14:19:48.166Z,23.00
2018-04-16T14:22:15.164Z,23.00
2018-04-16T14:24:41.457Z,23.00
2018-04-16T14:27:07.706Z,23.00
2018-04-16T14:29:33.913Z,22.90
2018-04-16T14:32:00.172Z,22.90
2018-04-16T14:34:28.120Z,22.70
2018-04-16T14:36:54.329Z,22.70
2018-04-16T14:39:20.567Z,22.60
2018-04-16T14:41:46.853Z,22.50
2018-04-16T14:44:13.123Z,22.40
2018-04-16T14:46:39.390Z,22.30
2018-04-16T14:49:05.603Z,22.30
2018-04-16T14:51:32.535Z,22.20
2018-04-16T14:53:59.499Z,22.30
2018-04-16T14:56:25.871Z,22.20
2018-04-16T14:58:53.073Z,22.30
2018-04-16T15:01:19.358Z,22.30
2018-04-16T15:03:45.628Z,22.30
2018-04-16T15:06:11.903Z,22.30
2018-04-16T15:08:38.155Z,22.30
2018-04-16T15:11:04.400Z,22.20
2018-04-16T15:13:37.531Z,22.20
2018-04-16T15:16:04.078Z,22.20
2018-04-16T15:18:31.033Z,22.30
2018-04-16T15:20:58.116Z,22.30
2018-04-16T15:23:24.822Z,22.30
2018-04-16T15:25:51.595Z,22.40
2018-04-16T15:28:17.776Z,22.40
2018-04-16T15:30:44.479Z,22.40
2018-04-16T15:33:10.734Z,22.40
2018-04-16T15:35:37.999Z,22.50
2018-04-16T15:38:05.426Z,22.50
2018-04-16T15:40:32.615Z,22.50
2018-04-16T15:42:58.850Z,22.60
2018-04-16T15:45:25.061Z,22.60
2018-04-16T15:47:51.284Z,22.60
2018-04-16T15:50:17.545Z,22.70
2018-04-16T15:52:43.837Z,22.60
2018-04-16T15:55:10.931Z,22.40
2018-04-16T15:57:37.937Z,22.10
2018-04-16T16:00:04.148Z,22.10
2018-04-16T16:02:30.347Z,21.90
2018-04-16T16:04:56.612Z,21.70
2018-04-16T16:07:22.866Z,21.50
2018-04-16T16:09:49.056Z,21.40
2018-04-16T16:12:15.423Z,21.30
2018-04-16T16:14:41.619Z,21.20
2018-04-16T16:17:07.830Z,21.10
2018-04-16T16:19:34.041Z,21.00
2018-04-16T16:22:00.212Z,20.90
2018-04-16T16:24:27.120Z,20.80
2018-04-16T16:26:53.309Z,20.80
2018-04-16T16:29:20.200Z,20.70
2018-04-16T16:31:46.355Z,20.70
2018-04-16T16:34:12.773Z,20.70
2018-04-16T16:36:38.930Z,20.60
2018-04-16T16:39:05.204Z,20.50
2018-04-16T16:41:31.423Z,20.40
2018-04-16T16:43:57.593Z,20.30
2018-04-16T16:46:24.571Z,20.00
2018-04-16T16:48:50.922Z,20.00
2018-04-16T16:51:17.831Z,19.90
2018-04-16T16:53:44.104Z,19.80
2018-04-16T16:56:10.307Z,19.80
2018-04-16T16:58:36.480Z,19.70
2018-04-16T17:01:02.681Z,19.70
2018-04-16T17:03:28.859Z,19.60
2018-04-16T17:05:55.851Z,19.50
2018-04-16T17:08:22.055Z,19.50
2018-04-16T17:10:48.288Z,19.50
2018-04-16T17:13:15.243Z,19.40
2018-04-16T17:15:42.371Z,19.30
2018-04-16T17:18:08.575Z,19.30
2018-04-16T17:20:34.767Z,19.30
2018-04-16T17:23:00.935Z,19.30
2018-04-16T17:25:27.160Z,19.30
2018-04-16T17:27:54.196Z,19.20
2018-04-16T17:30:20.342Z,19.20
2018-04-16T17:32:46.559Z,19.20
2018-04-16T17:35:12.833Z,19.20
2018-04-16T17:37:39.783Z,19.00
2018-04-16T17:40:05.996Z,19.00
2018-04-16T17:42:32.187Z,19.00
2018-04-16T17:44:58.392Z,18.90
2018-04-16T17:47:24.819Z,18.80
2018-04-16T17:49:51.035Z,18.80
2018-04-16T17:52:17.978Z,18.60
2018-04-16T17:54:44.958Z,18.50
2018-04-16T17:57:12.010Z,18.50
2018-04-16T17:59:38.197Z,18.40
2018-04-16T18:02:04.383Z,18.40
2018-04-16T18:04:31.303Z,18.30
2018-04-16T18:06:58.262Z,18.20
2018-04-16T18:09:24.465Z,18.20
2018-04-16T18:11:50.634Z,18.10
2018-04-16T18:14:16.881Z,18.10
2018-04-16T18:16:43.157Z,18.00
2018-04-16T18:19:09.318Z,17.90
2018-04-16T18:21:35.515Z,17.80
2018-04-16T18:24:01.776Z,17.80
2018-04-16T18:26:28.750Z,17.70
2018-04-16T18:28:54.920Z,17.70
2018-04-16T18:31:21.119Z,17.70
2018-04-16T18:33:48.013Z,17.50
2018-04-16T18:36:14.227Z,17.50
2018-04-16T18:38:41.133Z,17.50
2018-04-16T18:41:08.154Z,17.40
2018-04-16T18:43:34.327Z,17.40
2018-04-16T18:46:00.589Z,17.30
2018-04-16T18:48:27.659Z,17.10
2018-04-16T18:50:53.914Z,17.10
2018-04-16T18:53:20.862Z,17.00
2018-04-16T18:55:47.096Z,17.00
2018-04-16T18:58:13.299Z,17.00
2018-04-16T19:00:39.494Z,16.90
2018-04-16T19:03:05.711Z,16.80
2018-04-16T19:05:32.669Z,16.70
2018-04-16T19:07:58.914Z,16.70
2018-04-16T19:10:25.858Z,16.60
2018-04-16T19:12:53.607Z,16.50
2018-04-16T19:15:19.835Z,16.50
2018-04-16T19:17:52.058Z,16.50
2018-04-16T19:20:24.351Z,16.40
2018-04-16T19:22:51.284Z,16.30
2018-04-16T19:25:17.446Z,16.30
2018-04-16T19:27:50.601Z,16.20
2018-04-16T19:30:16.832Z,16.20
2018-04-16T19:32:49.229Z,16.20
2018-04-16T19:35:15.798Z,16.10
2018-04-16T19:37:42.031Z,16.10
2018-04-16T19:40:08.511Z,16.00
2018-04-16T19:42:40.667Z,16.00
2018-04-16T19:45:06.927Z,16.00
2018-04-16T19:47:33.099Z,15.90
2018-04-16T19:50:04.229Z,15.80
2018-04-16T19:52:30.430Z,15.80
2018-04-16T19:54:56.792Z,15.70
2018-04-16T19:57:29.103Z,15.70
2018-04-16T19:59:55.321Z,15.60
2018-04-16T20:02:28.471Z,15.60
2018-04-16T20:04:55.480Z,15.50
2018-04-16T20:07:21.682Z,15.50
2018-04-16T20:09:49.406Z,15.40
2018-04-16T20:12:16.318Z,15.40
2018-04-16T20:14:42.899Z,15.40
2018-04-16T20:17:09.939Z,15.30
2018-04-16T20:19:36.111Z,15.30
2018-04-16T20:22:03.119Z,15.30
2018-04-16T20:24:29.368Z,15.30
2018-04-16T20:26:55.543Z,15.00
2018-04-16T20:29:21.720Z,15.20
2018-04-16T20:31:47.900Z,15.20
2018-04-16T20:34:14.126Z,15.10
2018-04-16T20:36:40.419Z,15.10
2018-04-16T20:39:06.733Z,15.00
2018-04-16T20:41:33.000Z,15.00
2018-04-16T20:43:59.195Z,15.00
2018-04-16T20:46:26.863Z,14.90
2018-04-16T20:48:53.130Z,14.90
2018-04-16T20:51:19.291Z,14.80
2018-04-16T20:56:19.613Z,14.70
2018-04-16T20:58:45.883Z,14.70
2018-04-16T21:01:12.986Z,14.50
2018-04-16T21:06:13.331Z,14.40
2018-04-16T21:08:41.757Z,14.30
2018-04-16T21:11:07.986Z,14.30
2018-04-16T21:13:34.175Z,14.20
2018-04-16T21:16:01.299Z,14.10
2018-04-16T21:18:27.482Z,14.10
2018-04-16T21:20:53.709Z,14.00
2018-04-16T21:23:19.982Z,14.00
2018-04-16T21:25:46.972Z,13.80
2018-04-16T21:28:13.297Z,13.80
2018-04-16T21:30:39.443Z,13.80
2018-04-16T21:33:05.590Z,13.70
2018-04-16T21:35:31.886Z,13.70
2018-04-16T21:37:58.053Z,13.60
2018-04-16T21:40:24.960Z,13.50
2018-04-16T21:42:52.157Z,13.50
2018-04-16T21:45:18.362Z,13.50
2018-04-16T21:47:44.665Z,13.40
2018-04-16T21:50:12.021Z,13.40
2018-04-16T21:52:38.241Z,13.30
2018-04-16T21:55:05.343Z,13.30
2018-04-16T21:57:31.511Z,13.20
2018-04-16T21:59:57.708Z,13.30
2018-04-16T22:02:23.913Z,13.20
2018-04-16T22:04:50.059Z,13.20
2018-04-16T22:07:16.217Z,13.10
2018-04-16T22:09:42.401Z,13.10
2018-04-16T22:12:08.563Z,13.00
2018-04-16T22:14:34.711Z,13.00
2018-04-16T22:17:00.993Z,13.00
2018-04-16T22:19:28.691Z,12.80
2018-04-16T22:21:54.850Z,12.80
2018-04-16T22:24:21.013Z,12.80
2018-04-16T22:26:47.322Z,12.70
2018-04-16T22:29:13.521Z,12.70
2018-04-16T22:31:39.701Z,12.60
2018-04-16T22:34:05.911Z,12.50
2018-04-16T22:36:32.078Z,12.50
2018-04-16T22:38:58.238Z,12.40
2018-04-16T22:41:25.192Z,12.30
2018-04-16T22:43:51.362Z,12.30
2018-04-16T22:46:17.527Z,12.20
2018-04-16T22:48:43.748Z,12.20
2018-04-16T22:51:09.983Z,12.10
2018-04-16T22:53:36.134Z,12.10
2018-04-16T22:56:02.346Z,12.00
2018-04-16T22:58:28.486Z,12.20
2018-04-16T23:00:54.643Z,11.90
2018-04-16T23:03:20.869Z,11.90
2018-04-16T23:05:47.134Z,11.80
2018-04-16T23:08:20.383Z,11.80
2018-04-16T23:10:46.596Z,11.70
2018-04-16T23:13:13.620Z,11.60
2018-04-16T23:15:39.882Z,11.60
2018-04-16T23:18:06.366Z,11.60
2018-04-16T23:20:32.660Z,11.60
2018-04-16T23:22:58.865Z,11.50
2018-04-16T23:25:25.295Z,11.50
2018-04-16T23:27:52.242Z,11.40
2018-04-16T23:30:19.911Z,11.30
2018-04-16T23:32:46.272Z,11.30
2018-04-16T23:35:13.369Z,11.20
2018-04-16T23:37:39.599Z,11.20
2018-04-16T23:40:13.565Z,11.10
2018-04-16T23:42:39.745Z,11.10
2018-04-16T23:45:06.692Z,11.00
2018-04-16T23:47:32.899Z,11.00
2018-04-16T23:49:59.096Z,11.00
2018-04-16T23:52:25.409Z,10.90
2018-04-16T23:54:51.628Z,10.90
2018-04-16T23:57:17.843Z,10.80
2018-04-16T23:59:44.088Z,10.90
